sensor_id;sensor_type;location;lat;lon;timestamp;P1;durP1;ratioP1;P2;durP2;ratioP2
26253;SDS011;53339;51.378;0.094;2023-02-11T00:03:15;10.73;;;5.07;;
26253;SDS011;53339;51.378;0.094;2023-02-11T00:06:10;10.95;;;5.47;;
26253;SDS011;53339;51.378;0.094;2023-02-11T00:08:52;11.05;;;5.43;;
26253;SDS011;53339;51.378;0.094;2023-02-11T00:11:49;11.55;;;5.60;;
26253;SDS011;53339;51.378;0.094;2023-02-11T00:14:57;8.25;;;3.92;;
26253;SDS011;53339;51.378;0.094;2023-02-11T00:17:46;8.68;;;4.60;;
26253;SDS011;53339;51.378;0.094;2023-02-11T00:20:57;11.30;;;5.88;;
26253;SDS011;53339;51.378;0.094;2023-02-11T00:24:20;11.45;;;4.63;;
26253;SDS011;53339;51.378;0.094;2023-02-11T00:27:20;12.90;;;7.05;;
26253;SDS011;53339;51.378;0.094;2023-02-11T00:30:15;15.90;;;7.47;;
26253;SDS011;53339;51.378;0.094;2023-02-11T00:33:42;11.45;;;5.38;;
26253;SDS011;53339;51.378;0.094;2023-02-11T00:36:27;13.82;;;6.25;;
26253;SDS011;53339;51.378;0.094;2023-02-11T00:39:35;9.82;;;5.03;;
26253;SDS011;53339;51.378;0.094;2023-02-11T00:42:46;9.95;;;5.88;;
26253;SDS011;53339;51.378;0.094;2023-02-11T00:48:38;11.30;;;5.70;;
26253;SDS011;53339;51.378;0.094;2023-02-11T00:51:52;6.82;;;3.38;;
26253;SDS011;53339;51.378;0.094;2023-02-11T00:54:51;13.52;;;6.43;;
26253;SDS011;53339;51.378;0.094;2023-02-11T00:57:39;12.90;;;6.30;;
26253;SDS011;53339;51.378;0.094;2023-02-11T01:00:55;10.23;;;6.30;;
26253;SDS011;53339;51.378;0.094;2023-02-11T01:03:50;7.30;;;4.05;;
26253;SDS011;53339;51.378;0.094;2023-02-11T01:07:27;10.00;;;5.10;;
26253;SDS011;53339;51.378;0.094;2023-02-11T01:10:30;10.38;;;6.18;;
26253;SDS011;53339;51.378;0.094;2023-02-11T01:13:23;11.65;;;5.53;;
26253;SDS011;53339;51.378;0.094;2023-02-11T01:16:13;12.50;;;5.68;;
26253;SDS011;53339;51.378;0.094;2023-02-11T01:19:28;8.93;;;5.40;;
26253;SDS011;53339;51.378;0.094;2023-02-11T01:22:32;10.70;;;4.88;;
26253;SDS011;53339;51.378;0.094;2023-02-11T01:25:47;12.38;;;5.65;;
26253;SDS011;53339;51.378;0.094;2023-02-11T01:29:12;13.35;;;6.18;;
26253;SDS011;53339;51.378;0.094;2023-02-11T01:31:54;12.60;;;7.63;;
26253;SDS011;53339;51.378;0.094;2023-02-11T01:35:04;14.02;;;6.60;;
26253;SDS011;53339;51.378;0.094;2023-02-11T01:38:17;14.90;;;7.22;;
26253;SDS011;53339;51.378;0.094;2023-02-11T01:41:36;10.23;;;4.93;;
26253;SDS011;53339;51.378;0.094;2023-02-11T01:44:47;11.02;;;5.40;;
26253;SDS011;53339;51.378;0.094;2023-02-11T01:48:55;13.10;;;5.75;;
26253;SDS011;53339;51.378;0.094;2023-02-11T01:55:43;12.63;;;6.57;;
26253;SDS011;53339;51.378;0.094;2023-02-11T02:00:25;10.82;;;6.63;;
26253;SDS011;53339;51.378;0.094;2023-02-11T02:03:26;11.48;;;5.55;;
26253;SDS011;53339;51.378;0.094;2023-02-11T02:09:16;15.88;;;7.20;;
26253;SDS011;53339;51.378;0.094;2023-02-11T02:12:25;12.65;;;5.70;;
26253;SDS011;53339;51.378;0.094;2023-02-11T02:15:39;11.93;;;7.65;;
26253;SDS011;53339;51.378;0.094;2023-02-11T02:36:43;10.23;;;6.03;;
26253;SDS011;53339;51.378;0.094;2023-02-11T02:40:04;17.75;;;9.18;;
26253;SDS011;53339;51.378;0.094;2023-02-11T02:43:17;15.68;;;7.57;;
26253;SDS011;53339;51.378;0.094;2023-02-11T02:46:16;18.42;;;8.40;;
26253;SDS011;53339;51.378;0.094;2023-02-11T02:49:35;18.27;;;7.30;;
26253;SDS011;53339;51.378;0.094;2023-02-11T03:07:00;15.80;;;6.95;;
26253;SDS011;53339;51.378;0.094;2023-02-11T03:10:29;15.00;;;8.10;;
26253;SDS011;53339;51.378;0.094;2023-02-11T03:13:07;14.05;;;6.25;;
26253;SDS011;53339;51.378;0.094;2023-02-11T03:16:35;17.48;;;7.78;;
26253;SDS011;53339;51.378;0.094;2023-02-11T03:19:38;18.65;;;6.90;;
26253;SDS011;53339;51.378;0.094;2023-02-11T03:22:36;18.27;;;7.07;;
26253;SDS011;53339;51.378;0.094;2023-02-11T03:25:59;17.38;;;8.27;;
26253;SDS011;53339;51.378;0.094;2023-02-11T03:32:19;18.65;;;7.35;;
26253;SDS011;53339;51.378;0.094;2023-02-11T03:39:11;16.42;;;6.63;;
26253;SDS011;53339;51.378;0.094;2023-02-11T03:46:23;12.18;;;4.72;;
26253;SDS011;53339;51.378;0.094;2023-02-11T03:49:22;19.17;;;7.32;;
26253;SDS011;53339;51.378;0.094;2023-02-11T03:53:00;16.27;;;7.30;;
26253;SDS011;53339;51.378;0.094;2023-02-11T03:56:04;19.77;;;7.75;;
26253;SDS011;53339;51.378;0.094;2023-02-11T03:59:31;18.45;;;7.43;;
26253;SDS011;53339;51.378;0.094;2023-02-11T04:03:06;17.20;;;7.90;;
26253;SDS011;53339;51.378;0.094;2023-02-11T04:09:20;17.83;;;7.75;;
26253;SDS011;53339;51.378;0.094;2023-02-11T04:12:08;16.15;;;8.57;;
26253;SDS011;53339;51.378;0.094;2023-02-11T04:14:39;17.52;;;7.28;;
26253;SDS011;53339;51.378;0.094;2023-02-11T04:18:06;19.15;;;6.90;;
26253;SDS011;53339;51.378;0.094;2023-02-11T04:21:03;16.98;;;7.75;;
26253;SDS011;53339;51.378;0.094;2023-02-11T04:23:56;15.52;;;7.80;;
26253;SDS011;53339;51.378;0.094;2023-02-11T04:26:48;12.65;;;6.30;;
26253;SDS011;53339;51.378;0.094;2023-02-11T04:30:00;21.52;;;7.10;;
26253;SDS011;53339;51.378;0.094;2023-02-11T04:32:29;15.48;;;6.30;;
26253;SDS011;53339;51.378;0.094;2023-02-11T04:35:37;14.05;;;7.13;;
26253;SDS011;53339;51.378;0.094;2023-02-11T04:38:31;15.02;;;6.50;;
26253;SDS011;53339;51.378;0.094;2023-02-11T04:41:43;16.17;;;7.10;;
26253;SDS011;53339;51.378;0.094;2023-02-11T04:44:11;14.00;;;7.20;;
26253;SDS011;53339;51.378;0.094;2023-02-11T04:47:20;11.73;;;4.78;;
26253;SDS011;53339;51.378;0.094;2023-02-11T04:50:20;8.73;;;4.53;;
26253;SDS011;53339;51.378;0.094;2023-02-11T04:53:10;11.32;;;5.53;;
26253;SDS011;53339;51.378;0.094;2023-02-11T04:55:52;12.15;;;5.70;;
26253;SDS011;53339;51.378;0.094;2023-02-11T04:58:49;11.57;;;5.78;;
26253;SDS011;53339;51.378;0.094;2023-02-11T05:02:05;11.00;;;5.72;;
26253;SDS011;53339;51.378;0.094;2023-02-11T05:04:57;9.60;;;5.47;;
26253;SDS011;53339;51.378;0.094;2023-02-11T05:07:59;12.82;;;6.00;;
26253;SDS011;53339;51.378;0.094;2023-02-11T05:11:15;11.55;;;5.40;;
26253;SDS011;53339;51.378;0.094;2023-02-11T05:14:15;14.35;;;6.55;;
26253;SDS011;53339;51.378;0.094;2023-02-11T05:16:43;14.07;;;7.32;;
26253;SDS011;53339;51.378;0.094;2023-02-11T05:19:13;12.90;;;6.05;;
26253;SDS011;53339;51.378;0.094;2023-02-11T05:22:08;11.63;;;5.65;;
26253;SDS011;53339;51.378;0.094;2023-02-11T05:24:37;12.75;;;6.40;;
26253;SDS011;53339;51.378;0.094;2023-02-11T05:27:05;13.82;;;7.25;;
26253;SDS011;53339;51.378;0.094;2023-02-11T05:30:25;11.02;;;5.45;;
26253;SDS011;53339;51.378;0.094;2023-02-11T05:33:26;9.80;;;4.57;;
26253;SDS011;53339;51.378;0.094;2023-02-11T05:35:58;14.73;;;6.60;;
26253;SDS011;53339;51.378;0.094;2023-02-11T05:38:56;13.25;;;5.68;;
26253;SDS011;53339;51.378;0.094;2023-02-11T05:41:52;11.75;;;4.30;;
26253;SDS011;53339;51.378;0.094;2023-02-11T05:44:49;15.10;;;5.90;;
26253;SDS011;53339;51.378;0.094;2023-02-11T05:47:43;13.13;;;6.07;;
26253;SDS011;53339;51.378;0.094;2023-02-11T05:50:29;10.68;;;3.70;;
26253;SDS011;53339;51.378;0.094;2023-02-11T05:53:35;7.82;;;3.92;;
26253;SDS011;53339;51.378;0.094;2023-02-11T05:56:03;11.82;;;5.78;;
26253;SDS011;53339;51.378;0.094;2023-02-11T05:58:31;8.98;;;4.55;;
26253;SDS011;53339;51.378;0.094;2023-02-11T06:01:00;11.45;;;5.35;;
26253;SDS011;53339;51.378;0.094;2023-02-11T06:03:53;7.75;;;3.83;;
26253;SDS011;53339;51.378;0.094;2023-02-11T06:06:31;14.63;;;4.95;;
26253;SDS011;53339;51.378;0.094;2023-02-11T06:09:13;11.15;;;6.10;;
26253;SDS011;53339;51.378;0.094;2023-02-11T06:12:54;10.52;;;5.15;;
26253;SDS011;53339;51.378;0.094;2023-02-11T06:16:08;7.80;;;4.45;;
26253;SDS011;53339;51.378;0.094;2023-02-11T06:18:56;10.65;;;5.05;;
26253;SDS011;53339;51.378;0.094;2023-02-11T06:21:47;13.73;;;4.55;;
26253;SDS011;53339;51.378;0.094;2023-02-11T06:24:17;12.93;;;4.60;;
26253;SDS011;53339;51.378;0.094;2023-02-11T06:27:13;7.93;;;3.97;;
26253;SDS011;53339;51.378;0.094;2023-02-11T06:30:00;10.27;;;4.50;;
26253;SDS011;53339;51.378;0.094;2023-02-11T06:32:35;9.63;;;3.78;;
26253;SDS011;53339;51.378;0.094;2023-02-11T06:35:37;10.00;;;4.75;;
26253;SDS011;53339;51.378;0.094;2023-02-11T06:38:24;12.20;;;5.25;;
26253;SDS011;53339;51.378;0.094;2023-02-11T06:41:36;8.15;;;4.15;;
26253;SDS011;53339;51.378;0.094;2023-02-11T06:44:33;8.73;;;4.15;;
26253;SDS011;53339;51.378;0.094;2023-02-11T06:48:10;10.40;;;4.57;;
26253;SDS011;53339;51.378;0.094;2023-02-11T06:51:03;7.60;;;4.47;;
26253;SDS011;53339;51.378;0.094;2023-02-11T06:54:16;7.97;;;4.22;;
26253;SDS011;53339;51.378;0.094;2023-02-11T06:56:55;10.00;;;4.32;;
26253;SDS011;53339;51.378;0.094;2023-02-11T07:00:25;11.25;;;4.53;;
26253;SDS011;53339;51.378;0.094;2023-02-11T07:03:12;9.13;;;4.82;;
26253;SDS011;53339;51.378;0.094;2023-02-11T07:05:59;9.63;;;4.57;;
26253;SDS011;53339;51.378;0.094;2023-02-11T07:09:03;9.65;;;4.75;;
26253;SDS011;53339;51.378;0.094;2023-02-11T07:12:17;11.40;;;4.57;;
26253;SDS011;53339;51.378;0.094;2023-02-11T07:15:42;10.15;;;4.40;;
26253;SDS011;53339;51.378;0.094;2023-02-11T07:19:09;11.45;;;4.32;;
26253;SDS011;53339;51.378;0.094;2023-02-11T07:22:09;11.40;;;3.90;;
26253;SDS011;53339;51.378;0.094;2023-02-11T07:24:45;11.50;;;4.32;;
26253;SDS011;53339;51.378;0.094;2023-02-11T07:28:16;11.10;;;3.97;;
26253;SDS011;53339;51.378;0.094;2023-02-11T07:31:25;10.18;;;3.78;;
26253;SDS011;53339;51.378;0.094;2023-02-11T07:35:24;7.88;;;4.43;;
26253;SDS011;53339;51.378;0.094;2023-02-11T07:38:19;10.10;;;3.88;;
26253;SDS011;53339;51.378;0.094;2023-02-11T07:44:26;9.18;;;3.40;;
26253;SDS011;53339;51.378;0.094;2023-02-11T07:47:09;7.47;;;3.45;;
26253;SDS011;53339;51.378;0.094;2023-02-11T07:50:22;5.43;;;2.75;;
26253;SDS011;53339;51.378;0.094;2023-02-11T07:53:13;6.53;;;3.17;;
26253;SDS011;53339;51.378;0.094;2023-02-11T07:56:03;6.20;;;2.55;;
26253;SDS011;53339;51.378;0.094;2023-02-11T07:59:57;10.73;;;3.50;;
26253;SDS011;53339;51.378;0.094;2023-02-11T08:02:41;7.47;;;3.38;;
26253;SDS011;53339;51.378;0.094;2023-02-11T08:06:42;6.57;;;3.30;;
26253;SDS011;53339;51.378;0.094;2023-02-11T08:09:29;7.15;;;3.97;;
26253;SDS011;53339;51.378;0.094;2023-02-11T08:16:27;9.02;;;4.28;;
26253;SDS011;53339;51.378;0.094;2023-02-11T08:20:03;5.85;;;3.45;;
26253;SDS011;53339;51.378;0.094;2023-02-11T08:23:06;7.68;;;2.97;;
26253;SDS011;53339;51.378;0.094;2023-02-11T08:25:50;5.43;;;2.97;;
26253;SDS011;53339;51.378;0.094;2023-02-11T08:29:12;3.60;;;2.38;;
26253;SDS011;53339;51.378;0.094;2023-02-11T08:32:12;4.35;;;2.45;;
26253;SDS011;53339;51.378;0.094;2023-02-11T08:38:39;4.50;;;3.15;;
26253;SDS011;53339;51.378;0.094;2023-02-11T08:41:44;2.63;;;2.30;;
26253;SDS011;53339;51.378;0.094;2023-02-11T08:44:58;6.10;;;2.50;;
26253;SDS011;53339;51.378;0.094;2023-02-11T08:48:13;5.38;;;3.20;;
26253;SDS011;53339;51.378;0.094;2023-02-11T08:50:58;8.55;;;2.88;;
26253;SDS011;53339;51.378;0.094;2023-02-11T08:57:30;4.60;;;2.53;;
26253;SDS011;53339;51.378;0.094;2023-02-11T09:00:29;3.25;;;1.88;;
26253;SDS011;53339;51.378;0.094;2023-02-11T09:03:53;4.97;;;2.58;;
26253;SDS011;53339;51.378;0.094;2023-02-11T09:07:21;7.38;;;2.72;;
26253;SDS011;53339;51.378;0.094;2023-02-11T09:10:46;6.70;;;1.98;;
26253;SDS011;53339;51.378;0.094;2023-02-11T09:13:36;6.88;;;2.10;;
26253;SDS011;53339;51.378;0.094;2023-02-11T09:17:00;7.50;;;3.88;;
26253;SDS011;53339;51.378;0.094;2023-02-11T09:20:24;4.05;;;2.38;;
26253;SDS011;53339;51.378;0.094;2023-02-11T09:23:08;3.47;;;2.58;;
26253;SDS011;53339;51.378;0.094;2023-02-11T09:26:40;4.68;;;2.47;;
26253;SDS011;53339;51.378;0.094;2023-02-11T09:29:24;5.70;;;3.05;;
26253;SDS011;53339;51.378;0.094;2023-02-11T09:32:23;4.78;;;2.08;;
26253;SDS011;53339;51.378;0.094;2023-02-11T09:35:31;4.75;;;1.80;;
26253;SDS011;53339;51.378;0.094;2023-02-11T09:38:26;5.13;;;2.05;;
26253;SDS011;53339;51.378;0.094;2023-02-11T09:41:52;2.85;;;2.00;;
26253;SDS011;53339;51.378;0.094;2023-02-11T09:44:51;4.72;;;2.38;;
26253;SDS011;53339;51.378;0.094;2023-02-11T09:48:17;7.43;;;2.63;;
26253;SDS011;53339;51.378;0.094;2023-02-11T09:54:37;5.53;;;2.67;;
26253;SDS011;53339;51.378;0.094;2023-02-11T09:57:47;5.35;;;2.15;;
26253;SDS011;53339;51.378;0.094;2023-02-11T10:00:42;4.50;;;2.45;;
26253;SDS011;53339;51.378;0.094;2023-02-11T10:06:30;5.13;;;1.60;;
26253;SDS011;53339;51.378;0.094;2023-02-11T10:09:34;4.28;;;2.45;;
26253;SDS011;53339;51.378;0.094;2023-02-11T10:15:30;4.35;;;1.65;;
26253;SDS011;53339;51.378;0.094;2023-02-11T10:22:11;4.32;;;2.92;;
26253;SDS011;53339;51.378;0.094;2023-02-11T10:28:33;2.97;;;2.08;;
26253;SDS011;53339;51.378;0.094;2023-02-11T10:31:43;4.03;;;2.10;;
26253;SDS011;53339;51.378;0.094;2023-02-11T10:34:36;3.20;;;2.13;;
26253;SDS011;53339;51.378;0.094;2023-02-11T10:37:44;4.85;;;2.05;;
26253;SDS011;53339;51.378;0.094;2023-02-11T10:40:37;4.25;;;2.08;;
26253;SDS011;53339;51.378;0.094;2023-02-11T10:43:33;3.58;;;1.73;;
26253;SDS011;53339;51.378;0.094;2023-02-11T10:46:25;3.25;;;2.78;;
26253;SDS011;53339;51.378;0.094;2023-02-11T10:53:26;3.70;;;1.83;;
26253;SDS011;53339;51.378;0.094;2023-02-11T10:56:54;3.13;;;1.95;;
26253;SDS011;53339;51.378;0.094;2023-02-11T11:07:22;3.30;;;2.13;;
26253;SDS011;53339;51.378;0.094;2023-02-11T11:10:27;8.88;;;2.58;;
26253;SDS011;53339;51.378;0.094;2023-02-11T11:13:34;2.05;;;1.85;;
26253;SDS011;53339;51.378;0.094;2023-02-11T11:16:39;4.32;;;2.22;;
26253;SDS011;53339;51.378;0.094;2023-02-11T11:19:29;4.60;;;2.20;;
26253;SDS011;53339;51.378;0.094;2023-02-11T11:22:17;6.03;;;2.10;;
26253;SDS011;53339;51.378;0.094;2023-02-11T11:28:27;4.10;;;2.40;;
26253;SDS011;53339;51.378;0.094;2023-02-11T11:31:50;4.32;;;2.45;;
26253;SDS011;53339;51.378;0.094;2023-02-11T11:35:29;4.10;;;1.85;;
26253;SDS011;53339;51.378;0.094;2023-02-11T11:38:28;5.15;;;2.10;;
26253;SDS011;53339;51.378;0.094;2023-02-11T11:41:55;4.95;;;2.22;;
26253;SDS011;53339;51.378;0.094;2023-02-11T11:45:00;4.82;;;2.33;;
26253;SDS011;53339;51.378;0.094;2023-02-11T11:48:12;5.25;;;2.47;;
26253;SDS011;53339;51.378;0.094;2023-02-11T11:51:10;3.47;;;2.30;;
26253;SDS011;53339;51.378;0.094;2023-02-11T11:54:10;5.00;;;2.08;;
26253;SDS011;53339;51.378;0.094;2023-02-11T11:57:46;5.90;;;3.33;;
26253;SDS011;53339;51.378;0.094;2023-02-11T12:04:57;5.40;;;2.20;;
26253;SDS011;53339;51.378;0.094;2023-02-11T12:15:29;3.05;;;1.92;;
26253;SDS011;53339;51.378;0.094;2023-02-11T12:29:19;4.60;;;2.50;;
26253;SDS011;53339;51.378;0.094;2023-02-11T12:32:26;3.25;;;1.85;;
26253;SDS011;53339;51.378;0.094;2023-02-11T12:53:24;5.35;;;2.13;;
26253;SDS011;53339;51.378;0.094;2023-02-11T13:06:36;4.50;;;2.25;;
26253;SDS011;53339;51.378;0.094;2023-02-11T13:10:47;4.47;;;2.20;;
26253;SDS011;53339;51.378;0.094;2023-02-11T13:12:59;4.97;;;2.47;;
26253;SDS011;53339;51.378;0.094;2023-02-11T13:16:25;4.28;;;2.30;;
26253;SDS011;53339;51.378;0.094;2023-02-11T13:19:41;5.95;;;2.60;;
26253;SDS011;53339;51.378;0.094;2023-02-11T13:22:50;6.25;;;2.63;;
26253;SDS011;53339;51.378;0.094;2023-02-11T13:36:39;3.03;;;1.75;;
26253;SDS011;53339;51.378;0.094;2023-02-11T13:39:36;5.95;;;1.92;;
26253;SDS011;53339;51.378;0.094;2023-02-11T13:42:20;3.05;;;2.00;;
26253;SDS011;53339;51.378;0.094;2023-02-11T13:55:27;4.10;;;2.15;;
26253;SDS011;53339;51.378;0.094;2023-02-11T13:58:45;4.95;;;2.80;;
26253;SDS011;53339;51.378;0.094;2023-02-11T14:05:34;5.88;;;2.95;;
26253;SDS011;53339;51.378;0.094;2023-02-11T14:13:03;6.57;;;2.53;;
26253;SDS011;53339;51.378;0.094;2023-02-11T14:16:15;6.85;;;2.58;;
26253;SDS011;53339;51.378;0.094;2023-02-11T14:22:52;6.15;;;2.63;;
26253;SDS011;53339;51.378;0.094;2023-02-11T14:26:02;4.72;;;3.30;;
26253;SDS011;53339;51.378;0.094;2023-02-11T14:43:43;3.80;;;2.20;;
26253;SDS011;53339;51.378;0.094;2023-02-11T14:47:10;9.38;;;2.78;;
26253;SDS011;53339;51.378;0.094;2023-02-11T14:50:10;3.28;;;2.15;;
26253;SDS011;53339;51.378;0.094;2023-02-11T15:00:24;6.50;;;3.47;;
26253;SDS011;53339;51.378;0.094;2023-02-11T15:03:41;4.88;;;2.65;;
26253;SDS011;53339;51.378;0.094;2023-02-11T15:06:41;4.82;;;3.05;;
26253;SDS011;53339;51.378;0.094;2023-02-11T15:09:59;4.18;;;2.85;;
26253;SDS011;53339;51.378;0.094;2023-02-11T15:12:44;6.53;;;2.85;;
26253;SDS011;53339;51.378;0.094;2023-02-11T15:16:22;5.45;;;3.28;;
26253;SDS011;53339;51.378;0.094;2023-02-11T15:19:00;5.93;;;2.83;;
26253;SDS011;53339;51.378;0.094;2023-02-11T15:22:14;7.07;;;3.75;;
26253;SDS011;53339;51.378;0.094;2023-02-11T15:28:20;5.78;;;3.65;;
26253;SDS011;53339;51.378;0.094;2023-02-11T15:31:21;7.30;;;3.45;;
26253;SDS011;53339;51.378;0.094;2023-02-11T15:34:06;5.82;;;3.13;;
26253;SDS011;53339;51.378;0.094;2023-02-11T15:37:03;7.82;;;3.22;;
26253;SDS011;53339;51.378;0.094;2023-02-11T15:40:09;8.60;;;3.75;;
26253;SDS011;53339;51.378;0.094;2023-02-11T15:45:53;8.50;;;4.00;;
26253;SDS011;53339;51.378;0.094;2023-02-11T15:49:16;9.02;;;3.97;;
26253;SDS011;53339;51.378;0.094;2023-02-11T15:52:06;8.88;;;4.75;;
26253;SDS011;53339;51.378;0.094;2023-02-11T15:54:48;5.15;;;4.07;;
26253;SDS011;53339;51.378;0.094;2023-02-11T15:57:59;7.43;;;3.85;;
26253;SDS011;53339;51.378;0.094;2023-02-11T16:01:32;6.75;;;3.55;;
26253;SDS011;53339;51.378;0.094;2023-02-11T16:04:26;8.65;;;3.65;;
26253;SDS011;53339;51.378;0.094;2023-02-11T16:11:54;6.43;;;3.72;;
26253;SDS011;53339;51.378;0.094;2023-02-11T16:14:38;6.97;;;3.45;;
26253;SDS011;53339;51.378;0.094;2023-02-11T16:17:41;7.15;;;4.15;;
26253;SDS011;53339;51.378;0.094;2023-02-11T16:20:33;8.07;;;3.53;;
26253;SDS011;53339;51.378;0.094;2023-02-11T16:23:21;7.10;;;2.88;;
26253;SDS011;53339;51.378;0.094;2023-02-11T16:26:23;6.65;;;4.05;;
26253;SDS011;53339;51.378;0.094;2023-02-11T16:29:47;10.07;;;3.72;;
26253;SDS011;53339;51.378;0.094;2023-02-11T16:33:17;6.43;;;3.33;;
26253;SDS011;53339;51.378;0.094;2023-02-11T16:36:31;5.10;;;3.33;;
26253;SDS011;53339;51.378;0.094;2023-02-11T16:39:45;9.05;;;3.92;;
26253;SDS011;53339;51.378;0.094;2023-02-11T16:42:32;7.18;;;3.58;;
26253;SDS011;53339;51.378;0.094;2023-02-11T16:45:20;8.05;;;4.38;;
26253;SDS011;53339;51.378;0.094;2023-02-11T16:48:35;9.07;;;3.83;;
26253;SDS011;53339;51.378;0.094;2023-02-11T16:51:23;8.40;;;4.22;;
26253;SDS011;53339;51.378;0.094;2023-02-11T16:54:17;8.45;;;3.47;;
26253;SDS011;53339;51.378;0.094;2023-02-11T16:57:12;5.93;;;3.35;;
26253;SDS011;53339;51.378;0.094;2023-02-11T17:00:04;3.78;;;2.92;;
26253;SDS011;53339;51.378;0.094;2023-02-11T17:02:58;6.65;;;3.40;;
26253;SDS011;53339;51.378;0.094;2023-02-11T17:06:00;9.75;;;4.18;;
26253;SDS011;53339;51.378;0.094;2023-02-11T17:09:02;6.55;;;3.28;;
26253;SDS011;53339;51.378;0.094;2023-02-11T17:15:30;7.50;;;3.95;;
26253;SDS011;53339;51.378;0.094;2023-02-11T17:18:13;6.57;;;4.47;;
26253;SDS011;53339;51.378;0.094;2023-02-11T17:21:05;7.22;;;4.07;;
26253;SDS011;53339;51.378;0.094;2023-02-11T17:23:45;7.97;;;3.88;;
26253;SDS011;53339;51.378;0.094;2023-02-11T17:26:33;7.82;;;5.32;;
26253;SDS011;53339;51.378;0.094;2023-02-11T17:29:20;7.65;;;4.50;;
26253;SDS011;53339;51.378;0.094;2023-02-11T17:32:02;7.18;;;3.13;;
26253;SDS011;53339;51.378;0.094;2023-02-11T17:34:57;8.68;;;4.75;;
26253;SDS011;53339;51.378;0.094;2023-02-11T17:38:06;11.18;;;5.38;;
26253;SDS011;53339;51.378;0.094;2023-02-11T17:44:31;6.95;;;4.30;;
26253;SDS011;53339;51.378;0.094;2023-02-11T17:47:16;9.10;;;5.20;;
26253;SDS011;53339;51.378;0.094;2023-02-11T17:53:25;7.30;;;5.65;;
26253;SDS011;53339;51.378;0.094;2023-02-11T17:55:57;11.85;;;5.15;;
26253;SDS011;53339;51.378;0.094;2023-02-11T17:59:43;9.77;;;3.83;;
26253;SDS011;53339;51.378;0.094;2023-02-11T18:05:24;8.63;;;4.75;;
26253;SDS011;53339;51.378;0.094;2023-02-11T18:08:42;5.80;;;3.55;;
26253;SDS011;53339;51.378;0.094;2023-02-11T18:11:28;8.27;;;3.63;;
26253;SDS011;53339;51.378;0.094;2023-02-11T18:14:41;8.38;;;4.70;;
26253;SDS011;53339;51.378;0.094;2023-02-11T18:18:12;8.80;;;4.43;;
26253;SDS011;53339;51.378;0.094;2023-02-11T18:21:19;7.68;;;4.43;;
26253;SDS011;53339;51.378;0.094;2023-02-11T18:24:32;7.60;;;4.30;;
26253;SDS011;53339;51.378;0.094;2023-02-11T18:27:53;8.35;;;4.10;;
26253;SDS011;53339;51.378;0.094;2023-02-11T18:30:23;8.75;;;4.93;;
26253;SDS011;53339;51.378;0.094;2023-02-11T18:33:31;11.13;;;6.07;;
26253;SDS011;53339;51.378;0.094;2023-02-11T18:36:25;15.48;;;8.25;;
26253;SDS011;53339;51.378;0.094;2023-02-11T18:39:30;7.43;;;4.32;;
26253;SDS011;53339;51.378;0.094;2023-02-11T18:42:51;10.00;;;5.07;;
26253;SDS011;53339;51.378;0.094;2023-02-11T18:45:44;9.25;;;5.20;;
26253;SDS011;53339;51.378;0.094;2023-02-11T18:48:32;9.85;;;5.10;;
26253;SDS011;53339;51.378;0.094;2023-02-11T18:52:03;10.18;;;4.90;;
26253;SDS011;53339;51.378;0.094;2023-02-11T18:54:37;8.88;;;3.88;;
26253;SDS011;53339;51.378;0.094;2023-02-11T18:58:01;8.98;;;4.53;;
26253;SDS011;53339;51.378;0.094;2023-02-11T19:01:22;11.20;;;5.30;;
26253;SDS011;53339;51.378;0.094;2023-02-11T19:04:02;8.80;;;5.50;;
26253;SDS011;53339;51.378;0.094;2023-02-11T19:06:46;12.13;;;5.35;;
26253;SDS011;53339;51.378;0.094;2023-02-11T19:12:40;11.80;;;5.35;;
26253;SDS011;53339;51.378;0.094;2023-02-11T19:16:08;19.42;;;10.30;;
26253;SDS011;53339;51.378;0.094;2023-02-11T19:19:17;20.63;;;8.20;;
26253;SDS011;53339;51.378;0.094;2023-02-11T19:25:30;13.65;;;7.43;;
26253;SDS011;53339;51.378;0.094;2023-02-11T19:28:41;12.20;;;7.05;;
26253;SDS011;53339;51.378;0.094;2023-02-11T19:31:45;11.40;;;6.88;;
26253;SDS011;53339;51.378;0.094;2023-02-11T19:34:40;11.00;;;5.95;;
26253;SDS011;53339;51.378;0.094;2023-02-11T19:37:41;10.63;;;6.50;;
26253;SDS011;53339;51.378;0.094;2023-02-11T19:41:00;8.98;;;4.82;;
26253;SDS011;53339;51.378;0.094;2023-02-11T19:44:18;8.32;;;5.25;;
26253;SDS011;53339;51.378;0.094;2023-02-11T19:47:10;10.80;;;6.63;;
26253;SDS011;53339;51.378;0.094;2023-02-11T19:50:07;9.13;;;5.72;;
26253;SDS011;53339;51.378;0.094;2023-02-11T19:53:16;9.70;;;5.75;;
26253;SDS011;53339;51.378;0.094;2023-02-11T19:56:29;11.65;;;6.30;;
26253;SDS011;53339;51.378;0.094;2023-02-11T19:59:25;9.05;;;4.55;;
26253;SDS011;53339;51.378;0.094;2023-02-11T20:02:22;8.20;;;5.25;;
26253;SDS011;53339;51.378;0.094;2023-02-11T20:05:15;11.23;;;6.40;;
26253;SDS011;53339;51.378;0.094;2023-02-11T20:08:12;10.52;;;5.88;;
26253;SDS011;53339;51.378;0.094;2023-02-11T20:14:46;13.38;;;6.03;;
26253;SDS011;53339;51.378;0.094;2023-02-11T20:18:02;13.98;;;6.57;;
26253;SDS011;53339;51.378;0.094;2023-02-11T20:21:10;12.65;;;5.18;;
26253;SDS011;53339;51.378;0.094;2023-02-11T20:24:13;7.95;;;4.10;;
26253;SDS011;53339;51.378;0.094;2023-02-11T20:27:21;13.23;;;6.93;;
26253;SDS011;53339;51.378;0.094;2023-02-11T20:30:35;11.30;;;6.93;;
26253;SDS011;53339;51.378;0.094;2023-02-11T20:33:27;9.10;;;4.53;;
26253;SDS011;53339;51.378;0.094;2023-02-11T20:36:14;13.98;;;6.80;;
26253;SDS011;53339;51.378;0.094;2023-02-11T20:39:38;8.95;;;4.13;;
26253;SDS011;53339;51.378;0.094;2023-02-11T20:43:08;9.35;;;5.32;;
26253;SDS011;53339;51.378;0.094;2023-02-11T20:45:58;15.40;;;8.45;;
26253;SDS011;53339;51.378;0.094;2023-02-11T20:49:13;12.57;;;7.20;;
26253;SDS011;53339;51.378;0.094;2023-02-11T20:52:14;7.18;;;4.95;;
26253;SDS011;53339;51.378;0.094;2023-02-11T20:55:11;14.85;;;8.35;;
26253;SDS011;53339;51.378;0.094;2023-02-11T20:58:25;12.57;;;7.85;;
26253;SDS011;53339;51.378;0.094;2023-02-11T21:01:25;9.88;;;5.05;;
26253;SDS011;53339;51.378;0.094;2023-02-11T21:04:41;15.57;;;8.98;;
26253;SDS011;53339;51.378;0.094;2023-02-11T21:07:33;16.13;;;8.23;;
26253;SDS011;53339;51.378;0.094;2023-02-11T21:10:55;11.77;;;5.72;;
26253;SDS011;53339;51.378;0.094;2023-02-11T21:13:54;13.60;;;7.20;;
26253;SDS011;53339;51.378;0.094;2023-02-11T21:16:36;13.77;;;7.80;;
26253;SDS011;53339;51.378;0.094;2023-02-11T21:19:21;11.52;;;6.70;;
26253;SDS011;53339;51.378;0.094;2023-02-11T21:22:18;11.40;;;6.82;;
26253;SDS011;53339;51.378;0.094;2023-02-11T21:25:23;16.95;;;8.98;;
26253;SDS011;53339;51.378;0.094;2023-02-11T21:28:08;12.63;;;7.78;;
26253;SDS011;53339;51.378;0.094;2023-02-11T21:31:28;12.02;;;6.13;;
26253;SDS011;53339;51.378;0.094;2023-02-11T21:34:25;13.38;;;7.13;;
26253;SDS011;53339;51.378;0.094;2023-02-11T21:37:32;15.18;;;7.63;;
26253;SDS011;53339;51.378;0.094;2023-02-11T21:40:25;10.35;;;5.72;;
26253;SDS011;53339;51.378;0.094;2023-02-11T21:43:27;10.07;;;4.95;;
26253;SDS011;53339;51.378;0.094;2023-02-11T21:46:31;15.98;;;7.35;;
26253;SDS011;53339;51.378;0.094;2023-02-11T21:49:58;10.90;;;5.78;;
26253;SDS011;53339;51.378;0.094;2023-02-11T21:53:07;11.68;;;6.53;;
26253;SDS011;53339;51.378;0.094;2023-02-11T21:56:15;16.63;;;7.15;;
26253;SDS011;53339;51.378;0.094;2023-02-11T21:59:34;18.48;;;9.50;;
26253;SDS011;53339;51.378;0.094;2023-02-11T22:02:39;15.10;;;7.82;;
26253;SDS011;53339;51.378;0.094;2023-02-11T22:05:43;16.83;;;9.10;;
26253;SDS011;53339;51.378;0.094;2023-02-11T22:08:55;13.25;;;7.43;;
26253;SDS011;53339;51.378;0.094;2023-02-11T22:11:56;12.73;;;5.72;;
26253;SDS011;53339;51.378;0.094;2023-02-11T22:14:25;18.17;;;9.35;;
26253;SDS011;53339;51.378;0.094;2023-02-11T22:17:27;15.98;;;9.35;;